Alden Manor, New York
Current Conditions -  °F | °C
As of 6:51 PM on Sunday 21 Dec 2014 (Local Time) from KJFK Reporting Station
Overcast Overcast  
Wind Chill: 29°   Ceiling: 2200
Heat Index: 36°   Visibility: 10mi
Dew Point: 29°   Wind: 9mph
Humidity: 76%   Direction: 350°N
Pressure: 30.35"   Gusts: NA
Location:  40.7013°N, 73.7074°W
Report Text: KJFK 212351Z 35008KT 10SM SCT012 BKN022 OVC034 02/M02 A3035 RMK AO2 SNE34 SLP275 P0000 60000 T00221017 10033 20022 53014 $
Loading
Personal Weather Stations






























Interactive Weather Map New forecast layout! Learn more

10-Day Weather Forecast

Advertisements
Track Severe Weather on mobile